Flight Track Log - Related Links

Times and Time Zones

All times are in EDT time to prevent confusion due to time zone crossing. See the SWA508 flight status page for this flight to view local times or setup timezone preferences in your user account.

Time Position Orientation Groundspeed Altitude Reporting Facility
EDT Latitude Longitude Course Direction KTS MPH feet Rate Location/Type
Tue 08:10:35 AM 28.4333 -81.3000 30° Northeast 152 175 600  Level Orlando TRACON
Tue 08:11:48 AM 28.4833 -81.2667 30° Northeast 199 229 4,200 2,691 Climbing Orlando TRACON
Tue 08:13:20 AM 28.5922 -81.2400 12° North 269 310 8,000 2,858 Climbing Jacksonville Center
Tue 08:15:20 AM 28.7533 -81.2869 346° North 284 327 14,300 2,933 Climbing Jacksonville Center
Tue 08:16:20 AM 28.8436 -81.3164 344° North 313 360 16,800 3,250 Climbing Jacksonville Center
Tue 08:17:20 AM 28.9378 -81.3433 346° North 332 382 20,800 3,200 Climbing Jacksonville Center
Tue 08:18:20 AM 29.0342 -81.3703 346° North 354 407 23,200 2,800 Climbing Jacksonville Center
Tue 08:19:20 AM 29.1389 -81.3947 348° North 372 428 26,400 2,900 Climbing Jacksonville Center
Tue 08:20:20 AM 29.2475 -81.4028 356° North 392 451 29,000 2,450 Climbing Jacksonville Center
Tue 08:21:20 AM 29.3561 -81.4178 353° North 397 457 31,300 2,450 Climbing Jacksonville Center
Tue 08:22:20 AM 29.4564 -81.4281 355° North 404 465 33,900 1,850 Climbing Jacksonville Center
Tue 08:23:20 AM 29.5714 -81.4383 356° North 404 465 35,000 550 Climbing Jacksonville Center
Tue 08:24:20 AM 29.6842 -81.4486 355° North 409 471 35,000 700 Level Jacksonville Center
Tue 08:25:20 AM 29.8117 -81.4586 356° North 409 471 36,400 1,750 Climbing Jacksonville Center
Tue 08:26:20 AM 29.9286 -81.4714 355° North 414 476 38,500 2,150 Climbing Jacksonville Center
Tue 08:27:20 AM 30.0394 -81.4817 355° North 409 471 40,700 1,250 Climbing Jacksonville Center
Tue 08:28:20 AM 30.1522 -81.4919 355° North 402 463 41,000 150 Climbing Jacksonville Center
Tue 08:29:20 AM 30.2672 -81.5025 355° North 407 468 41,000  Level Jacksonville Center
Tue 08:30:20 AM 30.3822 -81.5056 359° North 407 468 41,000  Level Jacksonville Center
Tue 08:31:20 AM 30.4969 -81.4992 North 407 468 41,000  Level Jacksonville Center
Tue 08:32:21 AM 30.6136 -81.4903 North 407 468 41,000  Level Jacksonville Center
Tue 08:33:20 AM 30.7306 -81.4786 North 412 474 41,000  Level Jacksonville Center
Tue 08:34:20 AM 30.8453 -81.4697 North 412 474 41,000  Level Jacksonville Center
Tue 08:35:20 AM 30.9642 -81.4608 North 418 481 41,000  Level Jacksonville Center
Tue 08:36:20 AM 31.0811 -81.4492 North 418 481 41,000  Level Jacksonville Center
Tue 08:37:20 AM 31.1997 -81.4306 North 424 488 41,000  Level Jacksonville Center
Tue 08:38:20 AM 31.3167 -81.4164 North 429 494 41,000  Level Jacksonville Center
Tue 08:39:20 AM 31.4353 -81.3975 North 422 486 41,000  Level Jacksonville Center
Tue 08:40:20 AM 31.5417 -81.3836 North 427 491 41,000  Level Jacksonville Center
Tue 08:41:20 AM 31.6750 -81.3669 North 427 491 41,000  Level Jacksonville Center
Tue 08:42:20 AM 31.7981 -81.3478 North 427 491 41,000  Level Jacksonville Center
Tue 08:43:20 AM 31.9086 -81.3311 North 440 506 41,000  Level Jacksonville Center
Tue 08:44:20 AM 32.0336 -81.3144 North 445 512 41,000  Level Jacksonville Center
Tue 08:45:20 AM 32.1544 -81.2975 North 445 512 41,000  Level Jacksonville Center
Tue 08:46:20 AM 32.2775 -81.2831 North 445 512 41,000  Level Jacksonville Center
Tue 08:47:20 AM 32.3983 -81.2614 North 445 512 41,000  Level Jacksonville Center
Tue 08:48:20 AM 32.5192 -81.2492 North 439 505 41,000  Level Jacksonville Center
Tue 08:49:20 AM 32.6525 -81.2297 North 439 505 41,000  Level Jacksonville Center
Tue 08:50:20 AM 32.7589 -81.2153 North 439 505 41,000  Level Jacksonville Center
Tue 08:51:20 AM 32.8794 -81.1958 North 439 505 41,000  Level Jacksonville Center
Tue 08:52:20 AM 32.9983 -81.1811 North 439 505 41,000  Level Jacksonville Center
Tue 08:53:20 AM 33.1275 -81.1636 North 428 493 41,000  Level Jacksonville Center
Tue 08:54:20 AM 33.2461 -81.1467 North 423 487 41,000  Level Jacksonville Center
Tue 08:55:20 AM 33.3650 -81.1292 North 423 487 41,000  Level Jacksonville Center
Tue 08:56:20 AM 33.4817 -81.1119 North 423 487 41,000  Level Jacksonville Center
Tue 08:57:20 AM 33.6003 -81.0947 North 428 493 41,000  Level Jacksonville Center
Tue 08:58:20 AM 33.7189 -81.0772 North 428 493 41,000  Level Jacksonville Center
Tue 08:59:20 AM 33.8375 -81.0547 North 428 493 41,000  Level Jacksonville Center
Tue 09:00:20 AM 33.9586 -81.0447 North 428 493 41,000  Level Jacksonville Center
Tue 09:01:20 AM 34.0772 -81.0322 North 427 491 41,000  Level Jacksonville Center
Tue 09:02:20 AM 34.1961 -81.0222 North 427 491 41,000  Level Jacksonville Center
Tue 09:03:53 AM 34.3683 -81.0039 North 411 473 41,000  Level Atlanta Center
Tue 09:04:53 AM 34.4847 -80.9894 North 416 479 41,000  Level Atlanta Center
Tue 09:05:53 AM 34.6036 -80.9828 North 421 484 41,000  Level Atlanta Center
Tue 09:06:53 AM 34.7200 -80.9708 North 421 484 41,000  Level Atlanta Center
Tue 09:07:53 AM 34.8492 -80.9536 North 423 487 41,000  Level Atlanta Center
Tue 09:08:53 AM 34.9678 -80.9467 North 423 487 41,000  Level Atlanta Center
Tue 09:09:53 AM 35.0842 -80.9294 North 423 487 41,000  Level Atlanta Center
Tue 09:10:53 AM 35.2028 -80.9175 North 423 487 41,000  Level Atlanta Center
Tue 09:11:53 AM 35.3214 -80.9028 North 423 487 41,000  Level Atlanta Center
Tue 09:12:53 AM 35.4400 -80.8881 North 423 487 41,000  Level Atlanta Center
Tue 09:13:53 AM 35.5608 -80.8783 North 429 494 41,000  Level Atlanta Center
Tue 09:14:53 AM 35.6814 -80.8661 North 429 494 41,000  Level Atlanta Center
Tue 09:15:53 AM 35.8019 -80.8511 North 434 499 41,000  Level Atlanta Center
Tue 09:16:53 AM 35.9206 -80.8386 North 429 494 41,000  Level Atlanta Center
Tue 09:17:53 AM 36.0411 -80.8261 North 429 494 41,000  Level Atlanta Center
Tue 09:18:53 AM 36.1597 -80.8139 North 424 488 41,000  Level Atlanta Center
Tue 09:19:53 AM 36.2783 -80.8014 North 424 488 41,000  Level Atlanta Center
Tue 09:20:53 AM 36.4011 -80.7886 North 424 488 41,000  Level Atlanta Center
Tue 09:21:53 AM 36.5194 -80.7736 North 424 488 41,000  Level Atlanta Center
Tue 09:22:53 AM 36.6422 -80.7608 North 424 488 41,000  Level Atlanta Center
Tue 09:23:53 AM 36.7586 -80.7481 North 424 488 41,000 -600 Level Atlanta Center
Tue 09:25:33 AM 36.9469 -80.7325 North 449 517 39,400 -1,238 Descending Washington Center
Tue 09:26:33 AM 37.0603 -80.7194 North 429 494 37,700 -2,400 Descending Washington Center
Tue 09:27:33 AM 37.1700 -80.6903 12° North 409 471 34,600 -2,350 Descending Washington Center
Tue 09:28:33 AM 37.2906 -80.6514 14° North 404 465 33,000 -800 Descending Washington Center
Tue 09:29:33 AM 37.4006 -80.6142 15° North 404 465 33,000 -450 Level Washington Center
Tue 09:30:33 AM 37.5125 -80.5797 14° North 404 465 32,100 -900 Descending Washington Center
Tue 09:31:33 AM 37.6289 -80.5400 15° North 404 465 31,200 -950 Descending Washington Center
Tue 09:32:33 AM 37.7431 -80.5028 14° North 410 472 30,200 -1,000 Descending Washington Center
Tue 09:33:33 AM 37.8447 -80.4675 15° North 420 483 29,200 -600 Descending Washington Center
Tue 09:34:33 AM 37.9567 -80.4325 14° North 420 483 29,000 -1,300 Descending Washington Center
Tue 09:35:33 AM 38.0667 -80.3922 16° North 415 478 26,600 -2,450 Descending Washington Center
Tue 09:36:33 AM 38.1744 -80.3594 13° North 409 471 24,100 -1,300 Descending Washington Center
Tue 09:37:33 AM 38.2781 -80.3211 16° North 392 451 24,000 -50 Descending Washington Center
Tue 09:38:33 AM 38.3922 -80.2833 15° North 382 440 24,000  Level Washington Center
Tue 09:39:33 AM 38.4981 -80.2475 15° North 382 440 24,000 -850 Level Washington Center
Tue 09:40:33 AM 38.6014 -80.2142 14° North 387 445 22,300 -1,500 Descending Washington Center
Tue 09:41:33 AM 38.7008 -80.1781 16° North 382 440 21,000 -373 Descending Washington Center
Tue 09:44:02 AM 38.9508 -80.0786 17° North 352 405 21,000  Level Cleveland Center
Tue 09:45:02 AM 39.0403 -80.0139 29° Northeast 369 425 21,000  Level Cleveland Center
Tue 09:46:02 AM 39.1336 -79.9489 28° Northeast 376 433 21,000  Level Cleveland Center
Tue 09:47:02 AM 39.2250 -79.8892 27° Northeast 376 433 21,000  Level Cleveland Center
Tue 09:48:02 AM 39.3183 -79.8264 27° Northeast 370 426 21,000  Level Cleveland Center
Tue 09:49:02 AM 39.4206 -79.8092 North 363 418 21,000  Level Cleveland Center
Tue 09:50:02 AM 39.5225 -79.8000 North 363 418 21,000  Level Cleveland Center
Tue 09:51:02 AM 39.6267 -79.7853 North 363 418 21,000  Level Cleveland Center
Tue 09:52:02 AM 39.7286 -79.7733 North 369 425 21,000 -1,150 Level Cleveland Center
Tue 09:53:02 AM 39.8308 -79.7614 North 369 425 18,700 -2,450 Descending Cleveland Center
Tue 09:54:02 AM 39.9308 -79.7492 North 364 419 16,100 -2,650 Descending Cleveland Center
Tue 09:55:02 AM 40.0264 -79.7372 North 359 413 13,400 -2,550 Descending Cleveland Center
Tue 09:56:02 AM 40.1142 -79.7633 347° North 322 371 11,000 -1,700 Descending Cleveland Center
Tue 09:57:02 AM 40.1856 -79.8411 320° Northwest 317 365 10,000 -632 Descending Cleveland Center
Tue 09:57:37 AM 40.2219 -79.8881 315° West 329 379 10,000 -107 Level FAA TRACON SMA TRACON (SMA)
Tue 09:57:58 AM 40.2419 -79.9078 323° Northwest 298 343 9,900 -1,024 Descending FAA TRACON SMA TRACON (SMA)
Tue 09:58:18 AM 40.2664 -79.9322 323° Northwest 282 325 9,300 -1,538 Descending FAA TRACON SMA TRACON (SMA)
Tue 09:58:37 AM 40.2853 -79.9511 323° Northwest 282 325 8,900 -1,200 Descending FAA TRACON SMA TRACON (SMA)
Tue 09:58:58 AM 40.3039 -79.9700 322° Northwest 278 320 8,500 -1,650 Descending FAA TRACON SMA TRACON (SMA)
Tue 09:59:17 AM 40.3275 -79.9931 323° Northwest 275 316 7,800 -1,800 Descending FAA TRACON SMA TRACON (SMA)
Tue 09:59:38 AM 40.3456 -80.0117 322° Northwest 271 312 7,300 -1,756 Descending FAA TRACON SMA TRACON (SMA)
Tue 09:59:58 AM 40.3581 -80.0383 302° West 275 316 6,600 -2,000 Descending FAA TRACON SMA TRACON (SMA)
Tue 10:00:17 AM 40.3667 -80.0736 288° West 271 312 6,000 -900 Descending FAA TRACON SMA TRACON (SMA)
Tue 10:00:38 AM 40.3753 -80.1019 292° West 270 311 6,000  Level FAA TRACON SMA TRACON (SMA)
Tue 10:00:58 AM 40.3836 -80.1300 291° West 269 310 6,000  Level FAA TRACON SMA TRACON (SMA)
Tue 10:01:18 AM 40.3903 -80.1661 284° West 263 303 6,000 -150 Level FAA TRACON SMA TRACON (SMA)
Tue 10:01:38 AM 40.3950 -80.1944 282° West 250 288 5,900 -154 Descending FAA TRACON SMA TRACON (SMA)
Tue 10:01:57 AM 40.3994 -80.2208 282° West 232 267 5,900 -300 Level FAA TRACON SMA TRACON (SMA)
Tue 10:02:18 AM 40.4044 -80.2525 282° West 220 253 5,700 -1,024 Descending FAA TRACON SMA TRACON (SMA)
Tue 10:02:38 AM 40.4081 -80.2778 281° West 227 261 5,200 -1,385 Descending FAA TRACON SMA TRACON (SMA)
Tue 10:02:57 AM 40.4119 -80.3028 282° West 225 259 4,800 -1,350 Descending FAA TRACON SMA TRACON (SMA)
Tue 10:03:18 AM 40.4175 -80.3336 283° West 224 258 4,300 -1,171 Descending FAA TRACON SMA TRACON (SMA)
Tue 10:03:38 AM 40.4222 -80.3556 286° West 224 258 4,000 -1,050 Descending FAA TRACON SMA TRACON (SMA)
Tue 10:03:58 AM 40.4361 -80.3753 313° West 224 258 3,600 -1,200 Descending FAA TRACON SMA TRACON (SMA)
Tue 10:04:18 AM 40.4547 -80.3786 352° North 225 259 3,200 -1,077 Descending FAA TRACON SMA TRACON (SMA)
Tue 10:04:37 AM 40.4789 -80.3761 North 217 250 2,900 -558 Descending FAA TRACON SMA TRACON (SMA)
Tue 10:05:01 AM 40.4997 -80.3714 10° North 180 207 2,800 -682 Descending FAA TRACON SMA TRACON (SMA)
Tue 10:05:21 AM 40.5069 -80.3550 60° Northeast 179 206 2,400 -1,000 Descending FAA TRACON SMA TRACON (SMA)
Tue 10:05:37 AM 40.5053 -80.3378 97° East 155 178 2,200 -649 Descending FAA TRACON SMA TRACON (SMA)
Tue 10:05:58 AM 40.5033 -80.3222 99° East 141 162 2,000 -732 Descending FAA TRACON SMA TRACON (SMA)
Tue 10:06:18 AM 40.5031 -80.3075 91° East 132 152 1,700 -750 Descending FAA TRACON SMA TRACON (SMA)
Tue 10:06:38 AM 40.5025 -80.2900 92° East 123 142 1,500 -600 Descending FAA TRACON SMA TRACON (SMA)
Tue 10:06:58 AM 40.5022 -80.2761 92° East 124 143 1,300 -462 Descending FAA TRACON SMA TRACON (SMA)
Tue 10:07:17 AM 40.5022 -80.2728 90° East 117 135 1,200 -316 Descending FAA TRACON SMA TRACON (SMA)

Login

Don't have an account? Register now (free) for customized features, flight alerts, and more!